createdAt,value
2023-01-07T00:00:21.267Z,17.58
2023-01-07T00:05:20.221Z,23.23
2023-01-07T00:10:18.960Z,14.77
2023-01-07T00:15:19.123Z,21.85
2023-01-07T00:20:18.129Z,15.57
2023-01-07T00:25:17.091Z,20.63
2023-01-07T00:30:15.951Z,19.80
2023-01-07T00:35:23.420Z,16.35
2023-01-07T00:40:23.159Z,30.23
2023-01-07T00:45:22.175Z,18.55
2023-01-07T00:50:22.996Z,18.50
2023-01-07T00:55:22.089Z,28.63
2023-01-07T01:00:22.863Z,21.92
2023-01-07T01:05:23.796Z,17.75
2023-01-07T01:10:22.569Z,15.82
2023-01-07T01:15:21.775Z,19.40
2023-01-07T01:20:22.538Z,13.85
2023-01-07T01:25:21.445Z,15.45
2023-01-07T01:30:20.930Z,21.88
2023-01-07T01:35:19.888Z,21.13
2023-01-07T01:40:20.686Z,20.38
2023-01-07T01:45:20.789Z,26.67
2023-01-07T01:50:25.269Z,26.58
2023-01-07T01:55:30.553Z,22.40
2023-01-07T02:00:30.893Z,12.98
2023-01-07T02:05:34.212Z,11.77
2023-01-07T02:10:35.293Z,9.93
2023-01-07T02:15:53.320Z,14.15
2023-01-07T02:21:02.272Z,13.65
2023-01-07T02:26:42.833Z,12.82
2023-01-07T02:32:11.658Z,13.13
2023-01-07T02:37:16.029Z,10.73
2023-01-07T02:42:24.715Z,13.13
2023-01-07T02:47:29.628Z,12.68
2023-01-07T02:52:35.248Z,17.35
2023-01-07T02:57:56.037Z,15.65
2023-01-07T03:03:15.370Z,12.75
2023-01-07T03:08:36.014Z,14.98
2023-01-07T03:13:40.280Z,14.80
2023-01-07T03:18:47.342Z,13.52
2023-01-07T03:23:51.901Z,16.95
2023-01-07T03:28:52.462Z,15.18
2023-01-07T03:33:56.955Z,17.48
2023-01-07T03:38:57.582Z,20.05
2023-01-07T03:43:57.589Z,16.60
2023-01-07T03:48:58.104Z,18.73
2023-01-07T03:53:57.185Z,18.70
2023-01-07T03:58:56.416Z,17.77
2023-01-07T04:03:55.485Z,19.95
2023-01-07T04:08:56.268Z,21.83
2023-01-07T04:13:55.196Z,23.23
2023-01-07T04:18:54.188Z,18.98
2023-01-07T04:23:53.181Z,21.80
2023-01-07T04:28:53.681Z,19.60
2023-01-07T04:33:52.583Z,15.55
2023-01-07T04:38:51.998Z,20.40
2023-01-07T04:43:51.284Z,28.23
2023-01-07T04:48:51.533Z,27.60
2023-01-07T04:53:50.535Z,27.08
2023-01-07T04:58:49.580Z,24.83
2023-01-07T05:03:51.080Z,22.23
2023-01-07T05:08:49.980Z,23.83
2023-01-07T05:13:50.933Z,26.35
2023-01-07T05:18:52.151Z,27.63
2023-01-07T05:23:52.094Z,25.00
2023-01-07T05:28:51.367Z,33.95
2023-01-07T05:33:51.627Z,84.25
2023-01-07T05:38:50.614Z,55.50
2023-01-07T05:43:49.601Z,34.45
2023-01-07T05:48:48.503Z,36.80
2023-01-07T05:53:48.699Z,19.90
2023-01-07T05:58:47.505Z,19.52
2023-01-07T06:03:46.551Z,21.70
2023-01-07T06:08:45.526Z,20.05
2023-01-07T06:13:45.703Z,19.02
2023-01-07T06:18:44.520Z,22.98
2023-01-07T06:23:43.612Z,24.88
2023-01-07T06:28:42.436Z,24.83
2023-01-07T06:33:42.547Z,26.77
2023-01-07T06:38:41.785Z,29.08
2023-01-07T06:43:40.589Z,29.23
2023-01-07T06:48:39.455Z,27.90
2023-01-07T06:53:39.611Z,44.55
2023-01-07T06:58:38.410Z,38.38
2023-01-07T07:03:39.225Z,37.58
2023-01-07T07:08:39.482Z,29.65
2023-01-07T07:13:38.232Z,24.33
2023-01-07T07:18:37.134Z,25.23
2023-01-07T07:23:35.927Z,27.30
2023-01-07T07:28:36.030Z,27.25
2023-01-07T07:33:34.707Z,35.13
2023-01-07T07:38:33.495Z,34.00
2023-01-07T07:43:32.275Z,22.27
2023-01-07T07:48:32.455Z,27.65
2023-01-07T07:53:31.323Z,27.13
2023-01-07T07:58:30.168Z,30.38
2023-01-07T08:03:29.272Z,18.40
2023-01-07T08:08:31.377Z,19.63
2023-01-07T08:13:32.227Z,19.77
2023-01-07T08:18:32.826Z,17.63
2023-01-07T08:23:34.932Z,15.02
2023-01-07T08:28:35.004Z,21.48
2023-01-07T08:33:37.705Z,19.95
2023-01-07T08:38:38.033Z,17.73
2023-01-07T08:43:36.841Z,23.25
2023-01-07T08:48:35.944Z,19.27
2023-01-07T08:53:35.351Z,19.50
2023-01-07T08:58:35.657Z,21.45
2023-01-07T09:03:34.592Z,19.35
2023-01-07T09:08:33.461Z,18.48
2023-01-07T09:13:32.276Z,23.40
2023-01-07T09:18:32.516Z,16.45
2023-01-07T09:23:31.294Z,16.95
2023-01-07T09:28:30.416Z,13.68
2023-01-07T09:33:29.205Z,17.20
2023-01-07T09:38:30.046Z,15.50
2023-01-07T09:43:58.777Z,15.00
2023-01-07T09:48:58.629Z,15.50
2023-01-07T09:54:02.881Z,16.40
2023-01-07T09:59:02.936Z,16.58
2023-01-07T10:04:16.703Z,20.13
2023-01-07T10:09:30.593Z,21.75
2023-01-07T10:14:49.814Z,17.23
2023-01-07T10:19:56.237Z,17.33
2023-01-07T10:25:01.333Z,16.92
2023-01-07T10:30:06.737Z,16.13
2023-01-07T10:35:14.019Z,22.55
2023-01-07T10:40:26.497Z,20.30
2023-01-07T10:45:38.677Z,16.13
2023-01-07T10:51:04.851Z,16.85
2023-01-07T10:56:17.646Z,16.67
2023-01-07T11:01:24.600Z,15.20
2023-01-07T11:06:32.972Z,19.95
2023-01-07T11:11:34.676Z,21.45
2023-01-07T11:16:38.336Z,18.75
2023-01-07T11:21:43.951Z,23.55
2023-01-07T11:26:47.920Z,20.73
2023-01-07T11:31:51.596Z,16.33
2023-01-07T11:36:50.424Z,16.38
2023-01-07T11:42:21.562Z,19.65
2023-01-07T11:47:21.096Z,17.00
2023-01-07T11:52:21.339Z,18.13
2023-01-07T11:57:25.580Z,15.98
2023-01-07T12:02:28.024Z,15.70
2023-01-07T12:07:27.193Z,17.30
2023-01-07T12:12:37.108Z,15.30
2023-01-07T12:17:36.921Z,14.48
2023-01-07T12:22:47.999Z,17.48
2023-01-07T12:27:58.027Z,18.92
2023-01-07T12:33:12.035Z,14.18
2023-01-07T12:38:14.760Z,12.80
2023-01-07T12:58:41.184Z,12.15
2023-01-07T13:03:50.749Z,12.35
2023-01-07T13:08:59.330Z,12.68
2023-01-07T13:13:59.691Z,14.60
2023-01-07T13:18:58.477Z,15.15
2023-01-07T13:24:56.199Z,16.35
2023-01-07T13:30:03.499Z,15.13
2023-01-07T13:35:20.532Z,13.13
2023-01-07T13:40:36.261Z,13.90
2023-01-07T13:45:39.430Z,15.70
2023-01-07T13:50:41.871Z,14.73
2023-01-07T13:55:42.788Z,17.65
2023-01-07T14:01:02.619Z,13.88
2023-01-07T14:06:34.114Z,15.57
2023-01-07T14:11:53.670Z,16.42
2023-01-07T14:17:03.430Z,17.45
2023-01-07T14:22:10.706Z,24.50
2023-01-07T14:27:35.422Z,20.23
2023-01-07T14:32:37.800Z,26.75
2023-01-07T14:37:39.275Z,37.22
2023-01-07T14:42:43.962Z,57.97
2023-01-07T14:47:56.752Z,44.47
2023-01-07T14:53:46.751Z,71.38
2023-01-07T14:59:16.268Z,84.90
2023-01-07T15:04:38.568Z,41.00
2023-01-07T15:10:00.089Z,92.10
2023-01-07T15:15:24.861Z,62.50
2023-01-07T15:20:28.279Z,51.17
2023-01-07T15:25:36.201Z,50.25
2023-01-07T15:30:44.565Z,44.47
2023-01-07T15:35:45.955Z,41.13
2023-01-07T15:40:47.910Z,45.10
2023-01-07T15:45:46.951Z,94.77
2023-01-07T15:50:47.592Z,61.03
2023-01-07T15:55:54.009Z,70.00
2023-01-07T16:00:53.692Z,66.05
2023-01-07T16:05:54.392Z,59.10
2023-01-07T16:11:02.331Z,111.95
2023-01-07T16:16:03.588Z,100.18
2023-01-07T16:21:07.394Z,86.00
2023-01-07T16:26:08.724Z,78.10
2023-01-07T16:31:11.877Z,95.10
2023-01-07T16:41:23.053Z,118.30
2023-01-07T16:46:26.077Z,113.00
2023-01-07T16:51:41.028Z,162.43
2023-01-07T16:56:39.836Z,142.85
2023-01-07T17:01:38.815Z,99.95
2023-01-07T17:06:44.032Z,112.75
2023-01-07T17:11:42.874Z,112.45
2023-01-07T17:16:42.482Z,119.03
2023-01-07T17:21:44.934Z,141.55
2023-01-07T17:26:49.023Z,152.47
2023-01-07T17:31:48.451Z,171.25
2023-01-07T17:36:50.775Z,157.48
2023-01-07T17:42:06.963Z,157.48
2023-01-07T17:47:09.911Z,144.50
2023-01-07T17:52:12.014Z,133.90
2023-01-07T17:57:12.971Z,136.82
2023-01-07T18:02:17.025Z,133.43
2023-01-07T18:07:17.583Z,117.40
2023-01-07T18:12:34.613Z,109.25
2023-01-07T18:17:33.480Z,103.30
2023-01-07T18:22:33.728Z,88.78
2023-01-07T18:27:32.491Z,102.00
2023-01-07T18:32:31.292Z,105.03
2023-01-07T18:37:30.097Z,84.10
2023-01-07T18:42:30.422Z,83.22
2023-01-07T18:47:29.211Z,89.43
2023-01-07T18:52:28.961Z,97.38
2023-01-07T18:57:29.090Z,123.65
2023-01-07T19:02:27.807Z,129.30
2023-01-07T19:07:26.728Z,206.95
2023-01-07T19:12:25.660Z,201.13
2023-01-07T19:17:27.898Z,196.95
2023-01-07T19:22:26.846Z,200.55
2023-01-07T19:27:25.791Z,178.65
2023-01-07T19:32:24.602Z,130.85
2023-01-07T19:37:24.746Z,199.00
2023-01-07T19:42:23.618Z,155.45
2023-01-07T19:47:22.494Z,148.15
2023-01-07T19:52:21.304Z,135.20
2023-01-07T19:57:21.621Z,122.75
2023-01-07T20:02:20.574Z,118.75
2023-01-07T20:07:19.600Z,92.65
2023-01-07T20:12:19.728Z,93.68
2023-01-07T20:17:19.929Z,80.38
2023-01-07T20:22:18.927Z,74.35
2023-01-07T20:27:17.825Z,74.07
2023-01-07T20:32:18.383Z,72.82
2023-01-07T20:37:24.097Z,66.18
2023-01-07T20:42:22.902Z,77.15
2023-01-07T20:47:21.745Z,74.05
2023-01-07T20:52:21.963Z,84.90
2023-01-07T20:57:20.791Z,74.47
2023-01-07T21:02:19.769Z,73.15
2023-01-07T21:07:18.802Z,91.53
2023-01-07T21:12:19.102Z,103.35
2023-01-07T21:17:17.990Z,86.93
2023-01-07T21:22:16.897Z,85.93
2023-01-07T21:27:15.795Z,89.50
2023-01-07T21:32:16.003Z,82.15
2023-01-07T21:37:14.810Z,83.07
2023-01-07T21:42:13.656Z,74.80
2023-01-07T21:47:12.526Z,72.68
2023-01-07T21:52:12.744Z,82.50
2023-01-07T21:57:11.652Z,78.97
2023-01-07T22:02:11.352Z,83.45
2023-01-07T22:07:16.115Z,84.90
2023-01-07T22:12:16.418Z,88.43
2023-01-07T22:17:16.198Z,84.38
2023-01-07T22:22:16.947Z,97.38
2023-01-07T22:27:15.944Z,96.75
2023-01-07T22:32:14.769Z,97.80
2023-01-07T22:37:18.146Z,95.43
2023-01-07T22:42:21.491Z,95.25
2023-01-07T22:47:23.700Z,107.30
2023-01-07T22:52:24.272Z,100.90
2023-01-07T22:57:23.205Z,81.95
2023-01-07T23:02:21.987Z,86.53
2023-01-07T23:07:20.712Z,74.68
2023-01-07T23:12:20.942Z,81.93
2023-01-07T23:17:19.725Z,78.25
2023-01-07T23:22:18.517Z,95.32
2023-01-07T23:27:17.321Z,95.20
2023-01-07T23:32:17.631Z,114.38
2023-01-07T23:37:16.461Z,113.85
2023-01-07T23:42:15.249Z,122.43
2023-01-07T23:47:14.133Z,99.28
2023-01-07T23:52:14.283Z,90.20
2023-01-07T23:57:13.299Z,80.65
